createdAt,value
2022-11-15T00:01:51.474Z,43.97
2022-11-15T00:04:37.684Z,37.05
2022-11-15T00:07:48.732Z,39.08
2022-11-15T00:10:30.428Z,39.33
2022-11-15T00:13:16.544Z,35.92
2022-11-15T00:16:03.304Z,36.60
2022-11-15T00:18:50.973Z,37.42
2022-11-15T00:21:37.278Z,39.75
2022-11-15T00:24:23.313Z,35.97
2022-11-15T00:27:09.522Z,35.38
2022-11-15T00:29:55.656Z,29.67
2022-11-15T00:32:41.811Z,36.63
2022-11-15T00:35:28.154Z,35.42
2022-11-15T00:38:14.063Z,38.03
2022-11-15T00:41:02.794Z,37.55
2022-11-15T00:43:52.923Z,37.25
2022-11-15T00:46:38.996Z,35.95
2022-11-15T00:49:25.076Z,37.30
2022-11-15T00:52:11.378Z,34.58
2022-11-15T00:54:57.541Z,37.20
2022-11-15T00:57:43.696Z,37.58
2022-11-15T01:00:30.217Z,34.13
2022-11-15T01:03:16.297Z,35.50
2022-11-15T01:06:02.778Z,32.07
2022-11-15T01:08:48.871Z,37.70
2022-11-15T01:11:35.076Z,33.22
2022-11-15T01:14:25.207Z,33.17
2022-11-15T01:17:11.904Z,33.33
2022-11-15T01:19:58.156Z,35.28
2022-11-15T01:22:44.485Z,34.30
2022-11-15T01:25:30.729Z,30.40
2022-11-15T01:28:16.925Z,32.58
2022-11-15T01:31:04.245Z,31.98
2022-11-15T01:33:50.681Z,30.20
2022-11-15T01:36:37.121Z,30.10
2022-11-15T01:39:23.211Z,26.35
2022-11-15T01:42:14.052Z,27.60
2022-11-15T01:45:00.278Z,27.88
2022-11-15T01:47:56.214Z,26.48
2022-11-15T01:50:42.520Z,24.27
2022-11-15T01:53:29.245Z,27.63
2022-11-15T01:56:17.919Z,29.60
2022-11-15T01:59:06.248Z,24.00
2022-11-15T02:01:52.358Z,28.95
2022-11-15T02:04:43.268Z,26.60
2022-11-15T02:07:30.242Z,26.65
2022-11-15T02:10:20.758Z,27.35
2022-11-15T02:13:06.720Z,27.20
2022-11-15T02:15:52.874Z,27.63
2022-11-15T02:18:43.629Z,28.63
2022-11-15T02:21:29.940Z,30.05
2022-11-15T02:24:44.626Z,24.27
2022-11-15T02:27:36.732Z,28.33
2022-11-15T02:30:41.715Z,27.92
2022-11-15T02:33:38.187Z,26.13
2022-11-15T02:36:31.701Z,27.92
2022-11-15T02:39:26.017Z,32.25
2022-11-15T02:42:53.614Z,24.90
2022-11-15T02:46:03.134Z,27.77
2022-11-15T02:48:49.700Z,26.77
2022-11-15T02:51:35.832Z,25.58
2022-11-15T02:54:23.333Z,28.90
2022-11-15T02:57:17.292Z,26.08
2022-11-15T03:00:04.571Z,30.95
2022-11-15T03:03:09.671Z,26.67
2022-11-15T03:06:02.773Z,29.25
2022-11-15T03:08:54.281Z,28.90
2022-11-15T03:11:46.273Z,26.90
2022-11-15T03:14:35.344Z,26.87
2022-11-15T03:17:25.506Z,30.98
2022-11-15T03:20:13.436Z,25.55
2022-11-15T03:23:03.171Z,28.38
2022-11-15T03:25:52.201Z,27.50
2022-11-15T03:28:40.298Z,26.33
2022-11-15T03:31:50.033Z,28.13
2022-11-15T03:34:59.947Z,27.35
2022-11-15T03:37:50.299Z,27.05
2022-11-15T03:40:41.232Z,27.77
2022-11-15T03:43:30.977Z,23.77
2022-11-15T03:46:34.393Z,25.42
2022-11-15T03:49:31.684Z,26.20
2022-11-15T03:52:19.815Z,27.48
2022-11-15T03:55:08.173Z,28.05
2022-11-15T03:57:56.469Z,24.77
2022-11-15T04:00:42.862Z,24.63
2022-11-15T04:03:29.291Z,25.77
2022-11-15T04:06:15.927Z,25.65
2022-11-15T04:09:02.100Z,24.42
2022-11-15T04:11:48.333Z,28.85
2022-11-15T04:14:34.630Z,23.17
2022-11-15T04:17:20.837Z,24.77
2022-11-15T04:20:32.280Z,24.33
2022-11-15T04:23:38.077Z,23.45
2022-11-15T04:26:24.860Z,23.63
2022-11-15T04:29:29.460Z,22.45
2022-11-15T04:32:15.760Z,22.80
2022-11-15T04:35:02.153Z,24.48
2022-11-15T04:37:49.612Z,21.08
2022-11-15T04:40:36.137Z,26.90
2022-11-15T04:43:22.129Z,21.17
2022-11-15T04:46:08.290Z,25.15
2022-11-15T04:48:58.544Z,22.50
2022-11-15T04:51:45.772Z,21.47
2022-11-15T04:54:31.717Z,25.10
2022-11-15T04:57:17.974Z,24.85
2022-11-15T05:00:05.787Z,22.23
2022-11-15T05:03:11.261Z,25.95
2022-11-15T05:05:57.436Z,24.45
2022-11-15T05:08:43.862Z,23.17
2022-11-15T05:11:29.942Z,26.10
2022-11-15T05:14:16.372Z,28.58
2022-11-15T05:17:02.721Z,25.50
2022-11-15T05:19:49.992Z,27.55
2022-11-15T05:22:36.225Z,27.05
2022-11-15T05:25:22.538Z,24.65
2022-11-15T05:28:08.676Z,24.20
2022-11-15T05:30:54.892Z,21.05
2022-11-15T05:33:41.832Z,26.07
2022-11-15T05:36:42.979Z,31.90
2022-11-15T05:39:29.012Z,34.90
2022-11-15T05:42:15.796Z,33.63
2022-11-15T05:45:03.263Z,37.45
2022-11-15T05:47:50.031Z,35.30
2022-11-15T05:50:38.379Z,35.58
2022-11-15T05:53:25.062Z,31.73
2022-11-15T05:56:11.477Z,25.88
2022-11-15T05:58:59.909Z,25.33
2022-11-15T06:01:46.597Z,22.50
2022-11-15T06:04:33.097Z,21.88
2022-11-15T06:07:19.291Z,20.65
2022-11-15T06:10:05.647Z,23.05
2022-11-15T06:13:05.024Z,21.63
2022-11-15T06:15:51.248Z,26.10
2022-11-15T06:18:37.609Z,25.42
2022-11-15T06:21:23.924Z,23.38
2022-11-15T06:24:09.853Z,24.85
2022-11-15T06:26:56.177Z,23.85
2022-11-15T06:29:42.466Z,30.10
2022-11-15T06:32:28.714Z,26.30
2022-11-15T06:35:15.230Z,25.05
2022-11-15T06:38:06.157Z,30.77
2022-11-15T06:40:52.464Z,25.65
2022-11-15T06:43:38.934Z,32.20
2022-11-15T06:46:25.027Z,31.08
2022-11-15T06:49:11.104Z,38.80
2022-11-15T06:51:57.094Z,36.17
2022-11-15T06:54:43.093Z,40.83
2022-11-15T06:57:29.173Z,38.25
2022-11-15T07:00:15.879Z,44.92
2022-11-15T07:03:02.077Z,39.95
2022-11-15T07:05:55.758Z,49.65
2022-11-15T07:08:42.785Z,45.78
2022-11-15T07:11:28.808Z,47.47
2022-11-15T07:14:14.700Z,51.67
2022-11-15T07:17:00.713Z,49.92
2022-11-15T07:19:46.655Z,46.05
2022-11-15T07:22:32.634Z,46.50
2022-11-15T07:25:18.631Z,47.50
2022-11-15T07:28:05.119Z,44.65
2022-11-15T07:30:51.359Z,44.85
2022-11-15T07:33:37.273Z,38.38
2022-11-15T07:36:23.203Z,39.22
2022-11-15T07:39:09.207Z,40.08
2022-11-15T07:42:14.978Z,39.17
2022-11-15T07:45:00.668Z,40.40
2022-11-15T07:47:47.890Z,40.40
2022-11-15T07:50:33.504Z,45.45
2022-11-15T07:53:19.458Z,39.10
2022-11-15T07:56:08.465Z,40.00
2022-11-15T07:58:54.455Z,35.05
2022-11-15T08:01:40.553Z,34.63
2022-11-15T08:04:26.501Z,31.20
2022-11-15T08:07:12.437Z,31.40
2022-11-15T08:09:59.486Z,34.63
2022-11-15T08:12:45.323Z,30.42
2022-11-15T08:15:31.806Z,31.73
2022-11-15T08:18:18.063Z,33.23
2022-11-15T08:21:04.611Z,31.60
2022-11-15T08:23:51.675Z,30.47
2022-11-15T08:26:37.892Z,38.63
2022-11-15T08:29:23.457Z,37.33
2022-11-15T08:32:09.871Z,34.67
2022-11-15T08:34:55.592Z,37.88
2022-11-15T08:37:41.507Z,48.25
2022-11-15T08:40:28.062Z,45.45
2022-11-15T08:43:13.757Z,40.05
2022-11-15T08:46:00.161Z,33.72
2022-11-15T08:48:46.388Z,33.63
2022-11-15T08:51:32.135Z,33.47
2022-11-15T08:54:18.088Z,31.35
2022-11-15T08:57:04.158Z,35.22
2022-11-15T08:59:50.233Z,33.57
2022-11-15T09:02:38.297Z,30.52
2022-11-15T09:05:24.390Z,27.52
2022-11-15T09:08:32.753Z,36.15
2022-11-15T09:11:17.558Z,26.47
2022-11-15T09:14:03.678Z,32.83
2022-11-15T09:16:49.683Z,29.08
2022-11-15T09:19:35.583Z,36.15
2022-11-15T09:22:21.620Z,32.05
2022-11-15T09:25:10.898Z,27.70
2022-11-15T09:27:57.834Z,32.95
2022-11-15T09:30:44.116Z,29.38
2022-11-15T09:33:30.636Z,32.45
2022-11-15T09:36:17.794Z,28.92
2022-11-15T09:39:03.808Z,32.72
2022-11-15T09:42:11.900Z,32.15
2022-11-15T09:45:24.951Z,34.33
2022-11-15T09:48:38.458Z,33.88
2022-11-15T09:51:32.058Z,33.13
2022-11-15T09:56:53.992Z,34.60
2022-11-15T09:59:55.061Z,36.08
2022-11-15T10:02:40.114Z,34.58
2022-11-15T10:05:13.567Z,33.03
2022-11-15T10:08:19.675Z,30.43
2022-11-15T10:10:56.890Z,33.45
2022-11-15T10:13:40.506Z,36.95
2022-11-15T10:16:24.445Z,32.60
2022-11-15T10:19:21.210Z,35.83
2022-11-15T10:21:58.719Z,36.50
2022-11-15T10:24:31.954Z,35.03
2022-11-15T10:26:59.352Z,33.38
2022-11-15T10:29:27.501Z,33.60
2022-11-15T10:31:54.949Z,32.05
2022-11-15T10:34:24.632Z,37.17
2022-11-15T10:37:01.212Z,34.90
2022-11-15T10:39:29.000Z,35.38
2022-11-15T10:41:56.846Z,35.10
2022-11-15T10:44:27.506Z,33.85
2022-11-15T10:46:58.006Z,36.67
2022-11-15T10:49:30.768Z,34.45
2022-11-15T10:52:17.652Z,34.80
2022-11-15T10:54:51.086Z,35.25
2022-11-15T10:57:22.116Z,38.20
2022-11-15T10:59:54.489Z,35.15
2022-11-15T11:02:46.849Z,34.27
2022-11-15T11:05:41.021Z,33.77
2022-11-15T11:08:12.177Z,36.28
2022-11-15T11:11:01.423Z,35.35
2022-11-15T11:13:38.636Z,34.58
2022-11-15T11:16:15.042Z,33.60
2022-11-15T11:19:03.359Z,31.92
2022-11-15T11:21:50.717Z,31.58
2022-11-15T11:24:46.973Z,32.78
2022-11-15T11:27:41.449Z,33.65
2022-11-15T11:30:53.663Z,30.73
2022-11-15T11:33:43.269Z,29.77
2022-11-15T11:36:28.453Z,35.05
2022-11-15T11:39:24.809Z,30.67
2022-11-15T11:42:05.368Z,33.28
2022-11-15T11:45:11.771Z,29.02
2022-11-15T11:47:49.617Z,32.92
2022-11-15T11:50:21.496Z,29.90
2022-11-15T11:52:57.401Z,29.20
2022-11-15T11:55:39.574Z,32.33
2022-11-15T11:58:18.516Z,34.07
2022-11-15T12:00:57.020Z,27.80
2022-11-15T12:03:41.652Z,31.77
2022-11-15T12:06:46.475Z,31.20
2022-11-15T12:09:35.945Z,34.05
2022-11-15T12:12:19.548Z,34.05
2022-11-15T12:15:01.764Z,32.15
2022-11-15T12:17:34.597Z,34.70
2022-11-15T12:20:08.834Z,33.88
2022-11-15T12:22:50.587Z,38.03
2022-11-15T12:25:40.912Z,30.17
2022-11-15T12:28:37.313Z,35.03
2022-11-15T12:31:39.912Z,35.03
2022-11-15T12:34:47.620Z,35.03
2022-11-15T12:37:39.588Z,32.13
2022-11-15T12:40:21.976Z,34.20
2022-11-15T12:43:03.745Z,30.27
2022-11-15T12:45:37.886Z,32.72
2022-11-15T12:48:17.703Z,30.02
2022-11-15T12:50:56.167Z,33.85
2022-11-15T12:53:30.735Z,31.02
2022-11-15T12:56:18.907Z,27.00
2022-11-15T12:59:32.274Z,31.98
2022-11-15T13:02:01.266Z,28.75
2022-11-15T13:04:30.424Z,30.88
2022-11-15T13:06:59.725Z,26.77
2022-11-15T13:09:33.266Z,30.48
2022-11-15T13:12:15.405Z,28.55
2022-11-15T13:14:47.512Z,30.05
2022-11-15T13:17:20.409Z,30.00
2022-11-15T13:19:53.314Z,28.08
2022-11-15T13:22:39.326Z,28.27
2022-11-15T13:25:34.294Z,31.00
2022-11-15T13:28:07.585Z,28.43
2022-11-15T13:30:35.402Z,29.85
2022-11-15T13:33:17.323Z,28.77
2022-11-15T13:35:49.047Z,33.17
2022-11-15T13:38:30.902Z,32.23
2022-11-15T13:41:00.215Z,28.45
2022-11-15T13:43:32.183Z,30.35
2022-11-15T13:46:13.391Z,32.77
2022-11-15T13:48:42.546Z,29.90
2022-11-15T13:51:22.231Z,28.90
2022-11-15T13:53:56.244Z,33.63
2022-11-15T13:56:23.908Z,30.75
2022-11-15T13:58:51.344Z,29.98
2022-11-15T14:01:21.723Z,31.05
2022-11-15T14:04:00.625Z,30.58
2022-11-15T14:06:30.759Z,24.63
2022-11-15T14:09:10.444Z,24.13
2022-11-15T14:11:38.613Z,28.77
2022-11-15T14:14:16.718Z,26.42
2022-11-15T14:16:46.716Z,31.63
2022-11-15T14:19:26.045Z,25.97
2022-11-15T14:22:10.076Z,27.52
2022-11-15T14:24:38.191Z,28.13
2022-11-15T14:27:29.154Z,26.92
2022-11-15T14:29:56.555Z,27.90
2022-11-15T14:32:27.005Z,26.35
2022-11-15T14:34:58.804Z,24.55
2022-11-15T14:37:27.300Z,27.03
2022-11-15T14:39:55.582Z,24.13
2022-11-15T14:42:23.897Z,24.27
2022-11-15T14:44:51.785Z,25.15
2022-11-15T14:47:19.667Z,27.10
2022-11-15T14:49:47.297Z,20.58
2022-11-15T14:52:31.872Z,25.10
2022-11-15T14:55:02.406Z,23.20
2022-11-15T14:57:30.877Z,22.92
2022-11-15T14:59:58.367Z,22.35
2022-11-15T15:02:40.242Z,23.20
2022-11-15T15:05:33.357Z,21.25
2022-11-15T15:08:01.229Z,22.83
2022-11-15T15:10:41.453Z,21.35
2022-11-15T15:13:22.037Z,24.52
2022-11-15T15:15:50.572Z,23.45
2022-11-15T15:18:19.095Z,24.00
2022-11-15T15:20:58.346Z,21.47
2022-11-15T15:23:27.678Z,23.80
2022-11-15T15:25:55.017Z,21.92
2022-11-15T15:28:22.387Z,23.35
2022-11-15T15:30:50.508Z,20.17
2022-11-15T15:33:17.892Z,20.40
2022-11-15T15:35:45.281Z,23.67
2022-11-15T15:38:13.532Z,21.77
2022-11-15T15:40:40.911Z,20.98
2022-11-15T15:43:10.152Z,23.35
2022-11-15T15:45:40.211Z,23.95
2022-11-15T15:48:12.321Z,22.95
2022-11-15T15:50:40.206Z,21.98
2022-11-15T15:53:09.020Z,26.08
2022-11-15T15:55:36.416Z,21.45
2022-11-15T15:58:04.365Z,21.77
2022-11-15T16:00:34.018Z,25.45
2022-11-15T16:03:01.431Z,24.42
2022-11-15T16:05:28.820Z,20.17
2022-11-15T16:07:56.129Z,26.27
2022-11-15T16:10:29.639Z,23.13
2022-11-15T16:12:58.203Z,25.95
2022-11-15T16:15:30.004Z,25.65
2022-11-15T16:17:59.546Z,25.45
2022-11-15T16:20:40.565Z,25.40
2022-11-15T16:23:10.223Z,28.25
2022-11-15T16:25:56.603Z,30.75
2022-11-15T16:28:25.290Z,27.20
2022-11-15T16:31:02.610Z,22.05
2022-11-15T16:33:32.179Z,27.40
2022-11-15T16:35:59.913Z,29.35
2022-11-15T16:38:27.400Z,25.55
2022-11-15T16:40:54.842Z,28.80
2022-11-15T16:43:22.385Z,33.63
2022-11-15T16:45:51.550Z,26.30
2022-11-15T16:48:27.444Z,27.67
2022-11-15T16:50:56.997Z,28.83
2022-11-15T16:53:27.829Z,28.42
2022-11-15T16:55:55.753Z,30.83
2022-11-15T16:58:23.833Z,33.95
2022-11-15T17:00:53.302Z,34.80
2022-11-15T17:03:21.928Z,33.20
2022-11-15T17:05:50.063Z,36.42
2022-11-15T17:08:17.515Z,37.42
2022-11-15T17:10:44.869Z,32.38
2022-11-15T17:13:15.341Z,34.78
2022-11-15T17:15:42.761Z,37.67
2022-11-15T17:18:13.167Z,34.05
2022-11-15T17:20:41.678Z,35.35
2022-11-15T17:23:14.749Z,34.95
2022-11-15T17:25:42.495Z,33.03
2022-11-15T17:28:10.472Z,36.47
2022-11-15T17:30:40.728Z,33.40
2022-11-15T17:33:08.147Z,34.67
2022-11-15T17:35:35.563Z,33.70
2022-11-15T17:38:02.912Z,33.72
2022-11-15T17:40:30.260Z,35.00
2022-11-15T17:42:57.596Z,38.08
2022-11-15T17:45:25.013Z,39.50
2022-11-15T17:47:53.764Z,41.42
2022-11-15T17:50:21.107Z,36.60
2022-11-15T17:52:48.503Z,32.40
2022-11-15T17:55:15.859Z,32.45
2022-11-15T17:57:44.225Z,30.98
2022-11-15T18:00:12.332Z,30.90
2022-11-15T18:02:39.650Z,39.08
2022-11-15T18:05:07.667Z,30.25
2022-11-15T18:07:35.117Z,45.63
2022-11-15T18:10:02.451Z,35.55
2022-11-15T18:12:29.858Z,39.08
2022-11-15T18:14:58.054Z,43.08
2022-11-15T18:17:25.512Z,41.03
2022-11-15T18:19:52.874Z,33.45
2022-11-15T18:22:20.558Z,40.58
2022-11-15T18:24:48.284Z,45.58
2022-11-15T18:27:15.713Z,48.10
2022-11-15T18:29:44.795Z,43.05
2022-11-15T18:32:15.062Z,38.78
2022-11-15T18:34:42.352Z,43.15
2022-11-15T18:37:09.960Z,43.20
2022-11-15T18:39:37.878Z,50.28
2022-11-15T18:42:05.658Z,46.33
2022-11-15T18:44:33.033Z,49.03
2022-11-15T18:47:00.428Z,41.95
2022-11-15T18:49:27.975Z,43.20
2022-11-15T18:51:56.092Z,47.28
2022-11-15T18:54:28.105Z,49.08
2022-11-15T18:56:57.025Z,42.85
2022-11-15T18:59:24.797Z,45.60
2022-11-15T19:01:52.248Z,47.88
2022-11-15T19:04:20.906Z,47.40
2022-11-15T19:06:50.492Z,39.03
2022-11-15T19:09:19.247Z,47.67
2022-11-15T19:11:48.713Z,51.97
2022-11-15T19:14:17.676Z,52.88
2022-11-15T19:16:55.169Z,42.88
2022-11-15T19:19:24.945Z,49.05
2022-11-15T19:21:53.005Z,45.60
2022-11-15T19:24:20.891Z,47.33
2022-11-15T19:26:48.312Z,40.85
2022-11-15T19:29:17.259Z,44.40
2022-11-15T19:31:44.988Z,48.67
2022-11-15T19:34:12.908Z,46.42
2022-11-15T19:36:42.288Z,45.20
2022-11-15T19:39:12.917Z,45.13
2022-11-15T19:41:44.480Z,41.00
2022-11-15T19:44:13.022Z,38.33
2022-11-15T19:46:40.619Z,38.40
2022-11-15T19:49:10.853Z,45.20
2022-11-15T19:51:41.599Z,40.17
2022-11-15T19:54:10.314Z,41.83
2022-11-15T19:56:39.706Z,39.92
2022-11-15T19:59:07.597Z,38.03
2022-11-15T20:01:37.995Z,40.10
2022-11-15T20:04:06.579Z,44.70
2022-11-15T20:06:36.327Z,50.30
2022-11-15T20:09:04.021Z,42.60
2022-11-15T20:11:31.777Z,49.47
2022-11-15T20:14:02.247Z,42.47
2022-11-15T20:16:29.938Z,46.97
2022-11-15T20:18:57.637Z,44.55
2022-11-15T20:21:25.196Z,41.25
2022-11-15T20:23:52.809Z,42.83
2022-11-15T20:26:21.690Z,34.70
2022-11-15T20:28:49.649Z,45.22
2022-11-15T20:31:17.673Z,43.72
2022-11-15T20:33:45.109Z,45.42
2022-11-15T20:36:16.342Z,45.33
2022-11-15T20:38:45.972Z,47.63
2022-11-15T20:41:13.903Z,38.03
2022-11-15T20:43:43.630Z,34.50
2022-11-15T20:46:12.590Z,42.22
2022-11-15T20:48:41.745Z,43.20
2022-11-15T20:51:15.520Z,38.83
2022-11-15T20:53:44.509Z,32.53
2022-11-15T20:56:18.593Z,36.33
2022-11-15T20:58:47.079Z,30.92
2022-11-15T21:01:16.458Z,33.95
2022-11-15T21:03:44.838Z,34.53
2022-11-15T21:06:13.178Z,31.73
2022-11-15T21:09:00.183Z,32.90
2022-11-15T21:11:47.075Z,34.63
2022-11-15T21:14:14.756Z,32.67
2022-11-15T21:16:42.112Z,30.08
2022-11-15T21:19:10.194Z,25.45
2022-11-15T21:21:38.008Z,28.80
2022-11-15T21:24:08.355Z,28.83
2022-11-15T21:26:36.979Z,33.13
2022-11-15T21:29:05.120Z,26.63
2022-11-15T21:31:33.034Z,24.63
2022-11-15T21:34:03.953Z,27.35
2022-11-15T21:36:31.488Z,25.92
2022-11-15T21:38:58.872Z,31.70
2022-11-15T21:41:26.337Z,23.58
2022-11-15T21:43:58.049Z,26.25
2022-11-15T21:48:53.014Z,26.55
2022-11-15T21:51:20.380Z,24.10
2022-11-15T21:53:47.899Z,25.48
2022-11-15T21:56:15.514Z,27.65
2022-11-15T21:58:42.742Z,26.17
2022-11-15T22:01:30.127Z,28.02
2022-11-15T22:03:57.680Z,24.13
2022-11-15T22:06:24.985Z,23.10
2022-11-15T22:08:52.388Z,27.05
2022-11-15T22:11:20.412Z,22.10
2022-11-15T22:13:47.816Z,20.63
2022-11-15T22:16:15.181Z,21.10
2022-11-15T22:18:42.791Z,23.50
2022-11-15T22:21:15.605Z,21.67
2022-11-15T22:23:44.268Z,26.33
2022-11-15T22:26:14.414Z,22.38
2022-11-15T22:28:43.657Z,26.17
2022-11-15T22:31:11.959Z,23.70
2022-11-15T22:33:39.580Z,22.55
2022-11-15T22:36:07.990Z,24.90
2022-11-15T22:38:35.855Z,25.25
2022-11-15T22:41:03.836Z,23.33
2022-11-15T22:43:31.331Z,24.45
2022-11-15T22:46:00.745Z,18.00
2022-11-15T22:48:37.296Z,24.55
2022-11-15T22:51:06.034Z,22.58
2022-11-15T22:53:33.743Z,27.83
2022-11-15T22:56:03.188Z,20.98
2022-11-15T22:58:32.253Z,20.42
2022-11-15T23:01:02.207Z,18.80
2022-11-15T23:03:30.624Z,18.90
2022-11-15T23:06:03.960Z,24.73
2022-11-15T23:08:31.700Z,17.00
2022-11-15T23:11:24.035Z,26.90
2022-11-15T23:13:52.195Z,21.02
2022-11-15T23:16:23.803Z,17.20
2022-11-15T23:18:54.411Z,20.17
2022-11-15T23:22:04.063Z,15.85
2022-11-15T23:24:32.779Z,21.00
2022-11-15T23:27:02.831Z,18.23
2022-11-15T23:29:30.731Z,21.13
2022-11-15T23:32:16.898Z,18.30
2022-11-15T23:34:45.895Z,19.88
2022-11-15T23:37:15.439Z,22.02
2022-11-15T23:39:42.838Z,20.70
2022-11-15T23:42:19.692Z,15.52
2022-11-15T23:44:50.418Z,19.83
2022-11-15T23:47:19.346Z,17.42
2022-11-15T23:49:46.831Z,13.48
2022-11-15T23:52:15.551Z,16.75
2022-11-15T23:54:43.471Z,13.57
2022-11-15T23:57:12.371Z,18.13
2022-11-15T23:59:40.860Z,18.25
